createdAt,value
2022-08-16T05:52:24.573Z,23.38
2022-08-16T05:55:31.104Z,23.63
2022-08-16T05:58:38.240Z,24.00
2022-08-16T06:01:46.109Z,24.28
2022-08-16T06:04:50.779Z,24.96
2022-08-16T06:07:59.094Z,25.30
2022-08-16T06:11:13.414Z,25.86
2022-08-16T06:14:18.559Z,27.06
2022-08-16T06:17:44.527Z,27.48
2022-08-16T06:20:55.456Z,28.42
2022-08-16T06:24:01.226Z,29.36
2022-08-16T06:27:04.411Z,28.54
2022-08-16T06:30:13.379Z,29.05
2022-08-16T06:33:23.681Z,28.89
2022-08-16T06:36:27.376Z,28.77
2022-08-16T06:39:31.226Z,27.68
2022-08-16T06:42:47.114Z,27.71
2022-08-16T06:46:00.359Z,27.44
2022-08-16T06:49:11.170Z,27.99
2022-08-16T06:52:57.176Z,28.05
2022-08-16T06:55:38.384Z,28.34
2022-08-16T06:58:41.428Z,28.70
2022-08-16T07:01:54.545Z,28.27
2022-08-16T07:04:58.252Z,27.95
2022-08-16T07:11:47.545Z,27.60
2022-08-16T07:14:55.519Z,27.49
2022-08-16T07:29:23.993Z,27.18
2022-08-16T07:32:31.642Z,27.22
2022-08-16T07:42:48.303Z,28.17
2022-08-16T07:45:53.061Z,28.57
2022-08-16T07:49:02.505Z,28.86
2022-08-16T07:52:18.901Z,28.34
2022-08-16T07:55:23.695Z,28.30
2022-08-16T07:58:34.780Z,27.84
2022-08-16T08:01:40.408Z,28.26
2022-08-16T08:04:48.177Z,28.42
2022-08-16T08:07:53.261Z,27.99
2022-08-16T08:14:49.247Z,28.42
2022-08-16T08:17:54.828Z,28.39
2022-08-16T08:20:59.945Z,28.55
2022-08-16T08:24:12.477Z,28.11
2022-08-16T08:27:22.473Z,27.77
2022-08-16T08:30:52.271Z,29.11
2022-08-16T08:33:51.832Z,30.64
2022-08-16T08:36:55.195Z,32.06
2022-08-16T08:39:58.837Z,33.20
2022-08-16T08:43:11.863Z,33.59
2022-08-16T08:46:18.371Z,33.38
2022-08-16T08:49:24.723Z,33.56
2022-08-16T08:52:48.110Z,33.73
2022-08-16T08:55:59.289Z,34.75
2022-08-16T08:59:12.831Z,35.72
2022-08-16T09:02:19.542Z,34.64
2022-08-16T09:05:35.985Z,36.08
2022-08-16T09:08:47.321Z,37.26
2022-08-16T09:12:04.066Z,37.38
2022-08-16T09:15:13.874Z,37.70
2022-08-16T09:18:26.734Z,37.87
2022-08-16T09:21:31.453Z,37.69
2022-08-16T09:24:46.742Z,37.64
2022-08-16T09:28:02.363Z,37.04
2022-08-16T09:31:14.959Z,37.74
2022-08-16T09:34:19.433Z,38.84
2022-08-16T09:37:29.338Z,38.82
2022-08-16T09:40:42.352Z,39.31
2022-08-16T09:43:59.249Z,39.15
2022-08-16T09:47:10.308Z,39.71
2022-08-16T09:50:14.492Z,40.17
2022-08-16T09:53:26.799Z,39.94
2022-08-16T09:56:34.141Z,39.61
2022-08-16T09:59:38.551Z,39.69
2022-08-16T10:02:44.378Z,40.39
2022-08-16T10:05:51.242Z,42.26
2022-08-16T10:09:05.511Z,43.61
2022-08-16T10:12:28.178Z,42.89
2022-08-16T10:15:31.922Z,42.15
2022-08-16T10:18:56.648Z,42.00
2022-08-16T10:21:59.905Z,41.67
2022-08-16T10:25:08.969Z,41.58
2022-08-16T10:28:28.808Z,41.46
2022-08-16T10:31:44.504Z,41.04
2022-08-16T10:34:51.479Z,40.95
2022-08-16T10:37:55.269Z,41.43
2022-08-16T10:40:59.604Z,42.32
2022-08-16T10:44:04.454Z,44.16
2022-08-16T10:47:12.193Z,44.48
2022-08-16T10:50:19.614Z,47.21
2022-08-16T10:53:23.110Z,47.37
2022-08-16T10:56:55.699Z,45.42
2022-08-16T10:59:54.451Z,43.33
2022-08-16T11:03:05.707Z,39.65
2022-08-16T11:06:12.049Z,40.05
2022-08-16T11:09:25.501Z,39.60
2022-08-16T11:12:31.598Z,39.84
2022-08-16T11:15:36.010Z,39.81
2022-08-16T11:19:04.698Z,39.98
2022-08-16T11:22:23.303Z,37.87
2022-08-16T11:32:13.625Z,33.59
2022-08-16T11:38:57.022Z,32.47
2022-08-16T11:42:01.197Z,32.21
2022-08-16T11:45:05.511Z,31.89
2022-08-16T11:48:09.510Z,31.49
2022-08-16T11:51:13.428Z,31.81
2022-08-16T11:54:20.639Z,31.66
2022-08-16T11:57:24.467Z,31.52
2022-08-16T12:00:33.977Z,31.63
2022-08-16T12:03:53.627Z,31.59
2022-08-16T12:06:56.123Z,31.63
2022-08-16T12:09:59.702Z,31.76
2022-08-16T12:13:03.956Z,31.93
2022-08-16T12:16:09.178Z,32.02
2022-08-16T12:19:13.811Z,32.16
2022-08-16T12:22:19.860Z,32.29
2022-08-16T12:25:25.618Z,32.36
2022-08-16T12:28:55.093Z,32.25
2022-08-16T12:31:59.122Z,32.13
2022-08-16T12:35:19.419Z,32.30
2022-08-16T12:38:40.995Z,31.75
2022-08-16T12:41:46.809Z,32.12
2022-08-16T12:44:50.263Z,32.11
2022-08-16T12:48:32.986Z,32.24
2022-08-16T12:51:58.363Z,31.87
2022-08-16T12:55:03.987Z,31.97
2022-08-16T12:58:14.247Z,31.65
2022-08-16T13:01:33.303Z,31.57
2022-08-16T13:04:37.690Z,31.37
2022-08-16T13:07:45.043Z,31.26
2022-08-16T13:10:54.502Z,30.98
2022-08-16T13:13:58.336Z,30.93
2022-08-16T13:17:04.009Z,30.64
2022-08-16T13:20:15.695Z,30.47
2022-08-16T13:23:19.387Z,30.42
2022-08-16T13:26:22.993Z,30.65
2022-08-16T13:29:40.020Z,31.02
2022-08-16T13:32:47.353Z,31.50
2022-08-16T13:35:56.214Z,31.69
2022-08-16T13:39:01.634Z,31.57
2022-08-16T13:42:09.857Z,31.56
2022-08-16T13:45:15.929Z,31.56
2022-08-16T13:48:21.828Z,31.58
2022-08-16T13:51:30.668Z,31.59
2022-08-16T13:54:57.330Z,31.48
2022-08-16T13:58:36.467Z,31.46
2022-08-16T14:01:45.721Z,31.27
2022-08-16T14:05:05.895Z,31.30
2022-08-16T14:19:30.105Z,31.05
2022-08-16T14:22:52.511Z,31.48
2022-08-16T14:44:36.093Z,31.50
2022-08-16T14:47:42.455Z,31.41
2022-08-16T14:50:52.991Z,31.30
2022-08-16T14:54:04.552Z,30.84
2022-08-16T14:57:07.495Z,30.73
2022-08-16T15:00:14.120Z,31.08
2022-08-16T15:03:21.774Z,31.05
2022-08-16T15:06:25.551Z,30.90
2022-08-16T15:09:28.295Z,30.83
2022-08-16T15:12:33.378Z,30.86
